createdAt,value
2022-08-02T00:00:25.866Z,1001.76
2022-08-02T00:01:24.912Z,1001.73
2022-08-02T00:02:24.859Z,1001.80
2022-08-02T00:03:24.956Z,1001.76
2022-08-02T00:04:24.835Z,1001.84
2022-08-02T00:05:24.838Z,1001.81
2022-08-02T00:06:24.854Z,1001.74
2022-08-02T00:07:24.826Z,1001.71
2022-08-02T00:08:24.806Z,1001.81
2022-08-02T00:09:24.815Z,1001.77
2022-08-02T00:10:24.805Z,1001.72
2022-08-02T00:11:24.814Z,1001.68
2022-08-02T00:12:24.781Z,1001.77
2022-08-02T00:13:24.802Z,1001.75
2022-08-02T00:14:24.762Z,1001.71
2022-08-02T00:15:24.830Z,1001.70
2022-08-02T00:16:38.180Z,1001.68
2022-08-02T00:17:25.758Z,1001.73
2022-08-02T00:18:24.750Z,1001.67
2022-08-02T00:19:24.790Z,1001.67
2022-08-02T00:20:24.722Z,1001.72
2022-08-02T00:21:24.737Z,1001.65
2022-08-02T00:22:24.744Z,1001.77
2022-08-02T00:23:25.533Z,1001.66
2022-08-02T00:24:31.423Z,1001.71
2022-08-02T00:25:24.711Z,1001.68
2022-08-02T00:26:24.703Z,1001.77
2022-08-02T00:27:24.694Z,1001.69
2022-08-02T00:28:27.761Z,1001.70
2022-08-02T00:29:24.685Z,1001.70
2022-08-02T00:30:24.655Z,1001.73
2022-08-02T00:31:24.654Z,1001.71
2022-08-02T00:32:24.690Z,1001.72
2022-08-02T00:34:05.613Z,1001.73
2022-08-02T00:34:29.324Z,1001.74
2022-08-02T00:35:25.742Z,1001.75
2022-08-02T00:36:24.634Z,1001.70
2022-08-02T00:37:24.652Z,1001.71
2022-08-02T00:38:24.627Z,1001.76
2022-08-02T00:39:34.871Z,1001.78
2022-08-02T00:40:25.611Z,1001.74
2022-08-02T00:41:24.614Z,1001.74
2022-08-02T00:42:24.597Z,1001.74
2022-08-02T00:43:24.613Z,1001.74
2022-08-02T00:44:24.631Z,1001.75
2022-08-02T00:46:02.495Z,1001.71
2022-08-02T00:46:25.558Z,1001.74
2022-08-02T00:47:24.578Z,1001.71
2022-08-02T00:48:24.566Z,1001.77
2022-08-02T00:49:24.712Z,1001.78
2022-08-02T00:50:24.554Z,1001.75
2022-08-02T00:51:24.526Z,1001.79
2022-08-02T00:52:24.517Z,1001.75
2022-08-02T00:53:24.567Z,1001.74
2022-08-02T00:54:24.513Z,1001.78
2022-08-02T00:55:31.288Z,1001.81
2022-08-02T00:56:25.518Z,1001.78
2022-08-02T00:57:24.502Z,1001.80
2022-08-02T00:58:24.479Z,1001.82
2022-08-02T00:59:24.506Z,1001.90
2022-08-02T01:00:24.538Z,1001.83
2022-08-02T01:01:25.556Z,1001.83
2022-08-02T01:02:24.491Z,1001.85
2022-08-02T01:03:24.453Z,1001.91
2022-08-02T01:04:30.576Z,1001.99
2022-08-02T01:05:25.459Z,1001.94
2022-08-02T01:06:24.438Z,1001.97
2022-08-02T01:07:24.438Z,1001.99
2022-08-02T01:08:29.568Z,1001.97
2022-08-02T01:09:25.498Z,1002.03
2022-08-02T01:10:24.417Z,1001.98
2022-08-02T01:11:24.434Z,1002.00
2022-08-02T01:12:24.406Z,1001.99
2022-08-02T01:13:24.397Z,1002.01
2022-08-02T01:14:24.528Z,1001.98
2022-08-02T01:15:24.398Z,1002.07
2022-08-02T01:16:25.400Z,1002.01
2022-08-02T01:17:24.402Z,1001.96
2022-08-02T01:18:24.370Z,1002.01
2022-08-02T01:19:24.405Z,1001.95
2022-08-02T01:20:24.370Z,1002.00
2022-08-02T01:21:24.457Z,1001.98
2022-08-02T01:22:39.457Z,1001.97
2022-08-02T01:23:26.355Z,1001.91
2022-08-02T01:24:24.329Z,1001.98
2022-08-02T01:25:24.333Z,1002.00
2022-08-02T01:26:24.333Z,1001.92
2022-08-02T01:27:24.325Z,1001.97
2022-08-02T01:28:24.333Z,1001.93
2022-08-02T01:29:24.302Z,1001.88
2022-08-02T01:30:24.301Z,1001.84
2022-08-02T01:31:24.315Z,1001.85
2022-08-02T01:32:24.291Z,1001.84
2022-08-02T01:33:24.293Z,1001.84
2022-08-02T01:34:24.283Z,1001.84
2022-08-02T01:35:24.271Z,1001.86
2022-08-02T01:36:24.256Z,1001.89
2022-08-02T01:37:24.285Z,1001.93
2022-08-02T01:38:24.259Z,1001.89
2022-08-02T01:39:31.823Z,1001.91
2022-08-02T01:40:25.243Z,1001.95
2022-08-02T01:41:24.232Z,1001.93
2022-08-02T01:42:24.240Z,1001.91
2022-08-02T01:43:24.233Z,1001.84
2022-08-02T01:44:27.156Z,1001.88
2022-08-02T01:45:24.208Z,1001.85
2022-08-02T01:46:24.233Z,1001.84
2022-08-02T01:47:24.211Z,1001.84
2022-08-02T01:48:24.208Z,1001.86
2022-08-02T01:49:24.255Z,1001.90
2022-08-02T01:50:24.176Z,1001.82
2022-08-02T01:51:24.177Z,1001.88
2022-08-02T01:52:25.196Z,1001.95
2022-08-02T01:53:24.164Z,1001.90
2022-08-02T01:54:24.177Z,1001.93
2022-08-02T01:55:24.179Z,1001.88
2022-08-02T01:56:25.140Z,1001.94
2022-08-02T01:57:24.128Z,1001.88
2022-08-02T01:58:24.168Z,1001.87
2022-08-02T01:59:24.131Z,1001.92
2022-08-02T02:00:24.120Z,1001.92
2022-08-02T02:01:24.161Z,1001.90
2022-08-02T02:02:24.095Z,1001.88
2022-08-02T02:03:24.103Z,1001.92
2022-08-02T02:04:24.109Z,1001.88
2022-08-02T02:05:24.075Z,1001.83
2022-08-02T02:06:24.066Z,1001.84
2022-08-02T02:07:24.089Z,1001.84
2022-08-02T02:08:27.347Z,1001.87
2022-08-02T02:09:24.047Z,1001.81
2022-08-02T02:10:24.055Z,1001.86
2022-08-02T02:12:12.390Z,1001.90
2022-08-02T02:12:25.029Z,1001.85
2022-08-02T02:13:33.392Z,1001.86
2022-08-02T02:14:25.030Z,1001.86
2022-08-02T02:15:24.008Z,1001.85
2022-08-02T02:16:24.033Z,1001.86
2022-08-02T02:17:52.084Z,1001.90
2022-08-02T02:18:25.033Z,1001.91
2022-08-02T02:19:24.032Z,1001.90
2022-08-02T02:20:23.989Z,1001.89
2022-08-02T02:21:23.976Z,1001.94
2022-08-02T02:22:23.985Z,1001.94
2022-08-02T02:23:25.906Z,1001.94
2022-08-02T02:24:23.972Z,1001.97
2022-08-02T02:25:29.333Z,1001.98
2022-08-02T02:26:29.350Z,1001.94
2022-08-02T02:27:24.938Z,1001.91
2022-08-02T02:28:23.956Z,1001.92
2022-08-02T02:29:23.936Z,1001.91
2022-08-02T02:30:23.925Z,1001.91
2022-08-02T02:31:23.928Z,1001.88
2022-08-02T02:32:23.926Z,1001.93
2022-08-02T02:33:27.700Z,1001.90
2022-08-02T02:34:25.956Z,1001.91
2022-08-02T02:35:23.922Z,1001.88
2022-08-02T02:36:23.912Z,1001.90
2022-08-02T02:37:23.896Z,1001.85
2022-08-02T02:38:23.896Z,1001.91
2022-08-02T02:39:23.875Z,1001.90
2022-08-02T02:40:23.919Z,1001.91
2022-08-02T02:41:23.853Z,1001.95
2022-08-02T02:42:23.853Z,1001.98
2022-08-02T02:43:23.864Z,1001.97
2022-08-02T02:44:23.862Z,1001.98
2022-08-02T02:45:23.840Z,1001.99
2022-08-02T02:46:23.844Z,1002.03
2022-08-02T02:47:23.828Z,1002.00
2022-08-02T02:48:24.823Z,1002.02
2022-08-02T02:49:23.869Z,1002.06
2022-08-02T02:50:23.821Z,1002.02
2022-08-02T02:51:23.808Z,1002.06
2022-08-02T02:52:23.795Z,1002.03
2022-08-02T02:53:23.804Z,1002.07
2022-08-02T02:54:30.547Z,1002.03
2022-08-02T02:55:24.803Z,1002.10
2022-08-02T02:56:23.771Z,1002.04
2022-08-02T02:57:23.767Z,1002.07
2022-08-02T02:58:28.876Z,1002.02
2022-08-02T02:59:24.795Z,1001.97
2022-08-02T03:00:23.756Z,1002.04
2022-08-02T03:01:56.212Z,1002.09
2022-08-02T03:02:24.755Z,1002.08
2022-08-02T03:03:23.724Z,1002.05
2022-08-02T03:04:23.740Z,1002.05
2022-08-02T03:05:23.740Z,1002.04
2022-08-02T03:06:23.720Z,1001.99
2022-08-02T03:07:23.706Z,1002.03
2022-08-02T03:08:23.705Z,1002.03
2022-08-02T03:09:23.692Z,1002.03
2022-08-02T03:10:23.709Z,1001.99
2022-08-02T03:11:23.699Z,1001.98
2022-08-02T03:12:27.188Z,1001.95
2022-08-02T03:13:25.666Z,1001.95
2022-08-02T03:14:24.718Z,1001.92
2022-08-02T03:15:23.679Z,1001.95
2022-08-02T03:16:23.658Z,1001.94
2022-08-02T03:17:23.655Z,1001.98
2022-08-02T03:18:23.643Z,1001.92
2022-08-02T03:19:23.640Z,1001.95
2022-08-02T03:20:24.672Z,1001.96
2022-08-02T03:21:23.637Z,1001.92
2022-08-02T03:22:23.624Z,1001.87
2022-08-02T03:23:23.614Z,1001.94
2022-08-02T03:24:27.715Z,1001.96
2022-08-02T03:25:23.592Z,1001.93
2022-08-02T03:26:23.629Z,1001.95
2022-08-02T03:27:23.583Z,1001.88
2022-08-02T03:28:23.576Z,1001.90
2022-08-02T03:29:23.592Z,1001.90
2022-08-02T03:30:23.577Z,1001.91
2022-08-02T03:31:23.597Z,1001.92
2022-08-02T03:32:23.568Z,1001.91
2022-08-02T03:33:23.549Z,1001.97
2022-08-02T03:34:23.553Z,1001.94
2022-08-02T03:35:24.511Z,1001.93
2022-08-02T03:36:24.559Z,1001.92
2022-08-02T03:37:23.521Z,1001.90
2022-08-02T03:38:23.536Z,1001.84
2022-08-02T03:39:23.512Z,1001.90
2022-08-02T03:40:23.519Z,1001.80
2022-08-02T03:41:23.505Z,1001.82
2022-08-02T03:42:23.516Z,1001.78
2022-08-02T03:43:23.489Z,1001.74
2022-08-02T03:44:24.466Z,1001.70
2022-08-02T03:45:23.489Z,1001.69
2022-08-02T03:46:23.480Z,1001.74
2022-08-02T03:47:23.467Z,1001.73
2022-08-02T03:48:30.653Z,1001.69
2022-08-02T03:49:24.557Z,1001.73
2022-08-02T03:50:23.460Z,1001.71
2022-08-02T03:51:23.480Z,1001.73
2022-08-02T03:52:23.436Z,1001.78
2022-08-02T03:53:23.419Z,1001.72
2022-08-02T03:54:23.427Z,1001.73
2022-08-02T03:55:24.426Z,1001.81
2022-08-02T03:56:23.681Z,1001.80
2022-08-02T03:57:24.431Z,1001.80
2022-08-02T03:58:23.390Z,1001.80
2022-08-02T03:59:23.387Z,1001.79
2022-08-02T04:00:23.386Z,1001.72
2022-08-02T04:01:23.414Z,1001.75
2022-08-02T04:02:23.376Z,1001.68
2022-08-02T04:03:23.381Z,1001.68
2022-08-02T04:04:23.348Z,1001.66
2022-08-02T04:05:23.350Z,1001.64
2022-08-02T04:06:28.401Z,1001.64
2022-08-02T04:08:32.498Z,1001.64
2022-08-02T04:08:35.119Z,1001.65
2022-08-02T04:09:24.539Z,1001.61
2022-08-02T04:10:23.319Z,1001.66
2022-08-02T04:11:23.315Z,1001.65
2022-08-02T04:12:23.344Z,1001.63
2022-08-02T04:13:23.295Z,1001.69
2022-08-02T04:14:23.349Z,1001.73
2022-08-02T04:15:23.298Z,1001.72
2022-08-02T04:16:23.278Z,1001.71
2022-08-02T04:17:23.300Z,1001.74
2022-08-02T04:18:23.331Z,1001.74
2022-08-02T04:19:23.277Z,1001.77
2022-08-02T04:20:23.257Z,1001.80
2022-08-02T04:21:23.269Z,1001.78
2022-08-02T04:22:23.233Z,1001.78
2022-08-02T04:23:23.225Z,1001.79
2022-08-02T04:24:24.689Z,1001.75
2022-08-02T04:25:35.598Z,1001.78
2022-08-02T04:26:28.245Z,1001.86
2022-08-02T04:27:50.491Z,1001.82
2022-08-02T04:28:27.514Z,1001.85
2022-08-02T04:29:23.191Z,1001.84
2022-08-02T04:30:23.236Z,1001.85
2022-08-02T04:31:23.172Z,1001.87
2022-08-02T04:32:23.169Z,1001.95
2022-08-02T04:33:23.183Z,1001.97
2022-08-02T04:34:23.150Z,1001.99
2022-08-02T04:35:23.163Z,1001.98
2022-08-02T04:36:31.338Z,1002.03
2022-08-02T04:37:24.135Z,1002.05
2022-08-02T04:38:23.125Z,1002.06
2022-08-02T04:39:23.130Z,1002.08
2022-08-02T04:40:23.134Z,1002.11
2022-08-02T04:41:23.131Z,1002.15
2022-08-02T04:42:23.109Z,1002.17
2022-08-02T04:43:23.095Z,1002.18
2022-08-02T04:44:23.090Z,1002.21
2022-08-02T04:45:23.089Z,1002.21
2022-08-02T04:46:23.085Z,1002.19
2022-08-02T04:48:01.490Z,1002.23
2022-08-02T04:48:25.069Z,1002.20
2022-08-02T04:49:23.101Z,1002.20
2022-08-02T04:50:23.061Z,1002.14
2022-08-02T04:51:23.085Z,1002.16
2022-08-02T04:52:25.061Z,1002.10
2022-08-02T04:53:23.037Z,1002.19
2022-08-02T04:54:23.032Z,1002.12
2022-08-02T04:55:23.036Z,1002.19
2022-08-02T04:56:23.063Z,1002.12
2022-08-02T04:57:23.071Z,1002.19
2022-08-02T04:58:40.295Z,1002.09
2022-08-02T04:59:25.004Z,1002.15
2022-08-02T05:00:23.043Z,1002.13
2022-08-02T05:01:22.992Z,1002.13
2022-08-02T05:02:22.988Z,1002.10
2022-08-02T05:03:22.984Z,1002.11
2022-08-02T05:04:22.987Z,1002.09
2022-08-02T05:05:22.964Z,1002.07
2022-08-02T05:06:22.964Z,1002.11
2022-08-02T05:07:23.966Z,1002.10
2022-08-02T05:08:22.940Z,1002.15
2022-08-02T05:09:22.944Z,1002.17
2022-08-02T05:10:22.925Z,1002.15
2022-08-02T05:11:30.085Z,1002.10
2022-08-02T05:12:23.944Z,1002.16
2022-08-02T05:13:22.908Z,1002.17
2022-08-02T05:14:22.891Z,1002.15
2022-08-02T05:15:22.909Z,1002.16
2022-08-02T05:16:22.902Z,1002.17
2022-08-02T05:17:23.892Z,1002.17
2022-08-02T05:18:22.928Z,1002.24
2022-08-02T05:19:22.864Z,1002.22
2022-08-02T05:20:22.857Z,1002.20
2022-08-02T05:21:22.887Z,1002.24
2022-08-02T05:22:22.881Z,1002.20
2022-08-02T05:23:22.866Z,1002.13
2022-08-02T05:24:22.875Z,1002.19
2022-08-02T05:25:22.887Z,1002.23
2022-08-02T05:26:22.834Z,1002.20
2022-08-02T05:27:22.932Z,1002.23
2022-08-02T05:28:22.813Z,1002.25
2022-08-02T05:29:22.809Z,1002.25
2022-08-02T05:30:22.802Z,1002.21
2022-08-02T05:31:22.772Z,1002.25
2022-08-02T05:32:23.819Z,1002.23
2022-08-02T05:33:22.790Z,1002.21
2022-08-02T05:34:22.776Z,1002.25
2022-08-02T05:35:22.755Z,1002.27
2022-08-02T05:36:22.762Z,1002.26
2022-08-02T05:37:22.737Z,1002.29
2022-08-02T05:38:23.515Z,1002.24
2022-08-02T05:39:22.747Z,1002.24
2022-08-02T05:40:26.046Z,1002.27
2022-08-02T05:41:22.736Z,1002.26
2022-08-02T05:42:22.833Z,1002.25
2022-08-02T05:43:22.728Z,1002.29
2022-08-02T05:44:22.722Z,1002.30
2022-08-02T05:45:22.704Z,1002.29
2022-08-02T05:46:22.672Z,1002.29
2022-08-02T05:47:22.664Z,1002.34
2022-08-02T05:48:24.461Z,1002.38
2022-08-02T05:49:23.694Z,1002.39
2022-08-02T05:50:24.443Z,1002.43
2022-08-02T05:51:22.656Z,1002.39
2022-08-02T05:52:22.655Z,1002.39
2022-08-02T05:53:22.624Z,1002.42
2022-08-02T05:54:22.704Z,1002.49
2022-08-02T05:55:22.662Z,1002.46
2022-08-02T05:56:24.104Z,1002.48
2022-08-02T05:57:23.067Z,1002.46
2022-08-02T05:58:22.599Z,1002.49
2022-08-02T05:59:22.591Z,1002.46
2022-08-02T06:00:22.621Z,1002.55
2022-08-02T06:01:22.603Z,1002.49
2022-08-02T06:02:23.845Z,1002.54
2022-08-02T06:03:22.587Z,1002.52
2022-08-02T06:04:22.580Z,1002.49
2022-08-02T06:05:22.758Z,1002.53
2022-08-02T06:06:22.556Z,1002.50
2022-08-02T06:07:22.556Z,1002.49
2022-08-02T06:08:22.576Z,1002.52
2022-08-02T06:09:23.298Z,1002.54
2022-08-02T06:10:22.528Z,1002.52
2022-08-02T06:11:22.522Z,1002.51
2022-08-02T06:12:22.489Z,1002.56
2022-08-02T06:13:22.520Z,1002.60
2022-08-02T06:14:22.494Z,1002.58
2022-08-02T06:15:22.479Z,1002.49
2022-08-02T06:16:32.165Z,1002.43
2022-08-02T06:17:23.469Z,1002.46
2022-08-02T06:18:27.731Z,1002.42
2022-08-02T06:19:23.486Z,1002.45
2022-08-02T06:20:22.431Z,1002.44
2022-08-02T06:22:31.847Z,1002.51
2022-08-02T06:22:35.356Z,1002.46
2022-08-02T06:23:23.430Z,1002.48
2022-08-02T06:24:22.430Z,1002.48
2022-08-02T06:25:51.181Z,1002.46
2022-08-02T06:26:23.393Z,1002.42
2022-08-02T06:27:22.386Z,1002.50
2022-08-02T06:28:23.400Z,1002.46
2022-08-02T06:29:23.248Z,1002.48
2022-08-02T06:30:22.370Z,1002.42
2022-08-02T06:31:22.396Z,1002.46
2022-08-02T06:32:22.365Z,1002.50
2022-08-02T06:33:22.364Z,1002.44
2022-08-02T06:34:22.389Z,1002.46
2022-08-02T06:35:22.398Z,1002.48
2022-08-02T06:36:22.335Z,1002.47
2022-08-02T06:37:22.344Z,1002.47
2022-08-02T06:38:22.324Z,1002.46
2022-08-02T06:39:22.324Z,1002.41
2022-08-02T06:40:22.332Z,1002.46
2022-08-02T06:41:22.312Z,1002.45
2022-08-02T06:42:24.135Z,1002.45
2022-08-02T06:43:23.311Z,1002.47
2022-08-02T06:45:24.283Z,1002.55
2022-08-02T06:46:57.369Z,1002.56
2022-08-02T06:47:23.269Z,1002.60
2022-08-02T06:48:22.272Z,1002.51
2022-08-02T06:49:22.382Z,1002.53
2022-08-02T06:50:22.239Z,1002.46
2022-08-02T06:51:22.238Z,1002.39
2022-08-02T06:52:26.886Z,1002.41
2022-08-02T06:53:24.227Z,1002.41
2022-08-02T06:54:22.222Z,1002.45
2022-08-02T06:55:22.245Z,1002.39
2022-08-02T06:56:22.210Z,1002.48
2022-08-02T06:57:22.196Z,1002.46
2022-08-02T06:58:22.281Z,1002.50
2022-08-02T06:59:22.188Z,1002.42
2022-08-02T07:00:22.216Z,1002.39
2022-08-02T07:01:22.232Z,1002.38
2022-08-02T07:02:22.167Z,1002.45
2022-08-02T07:03:22.175Z,1002.35
2022-08-02T07:04:22.179Z,1002.37
2022-08-02T07:05:22.186Z,1002.34
2022-08-02T07:06:22.173Z,1002.39
2022-08-02T07:07:22.163Z,1002.32
2022-08-02T07:08:22.178Z,1002.31
2022-08-02T07:09:22.360Z,1002.35
2022-08-02T07:10:22.154Z,1002.37
2022-08-02T07:11:22.111Z,1002.31
2022-08-02T07:12:22.116Z,1002.38
2022-08-02T07:13:22.149Z,1002.37
2022-08-02T07:14:22.093Z,1002.39
2022-08-02T07:15:22.111Z,1002.33
2022-08-02T07:16:22.116Z,1002.42
2022-08-02T07:17:22.086Z,1002.41
2022-08-02T07:18:22.085Z,1002.44
2022-08-02T07:19:22.084Z,1002.50
2022-08-02T07:20:23.154Z,1002.48
2022-08-02T07:21:56.620Z,1002.46
2022-08-02T07:22:23.211Z,1002.49
2022-08-02T07:23:22.092Z,1002.44
2022-08-02T07:24:22.918Z,1002.41
2022-08-02T07:25:22.051Z,1002.42
2022-08-02T07:26:22.061Z,1002.43
2022-08-02T07:27:22.066Z,1002.41
2022-08-02T07:28:24.516Z,1002.37
2022-08-02T07:29:23.008Z,1002.41
2022-08-02T07:30:22.087Z,1002.41
2022-08-02T07:31:22.000Z,1002.27
2022-08-02T07:32:22.015Z,1002.28
2022-08-02T07:33:37.740Z,1002.26
2022-08-02T07:34:23.007Z,1002.32
2022-08-02T07:35:22.027Z,1002.33
2022-08-02T07:36:22.381Z,1002.39
2022-08-02T07:37:51.092Z,1002.33
2022-08-02T07:38:22.974Z,1002.35
2022-08-02T07:39:21.980Z,1002.39
2022-08-02T07:40:21.963Z,1002.34
2022-08-02T07:41:21.940Z,1002.29
2022-08-02T07:42:21.954Z,1002.31
2022-08-02T07:43:21.923Z,1002.19
2022-08-02T07:44:21.906Z,1002.27
2022-08-02T07:45:21.926Z,1002.22
2022-08-02T07:46:21.906Z,1002.20
2022-08-02T07:47:21.951Z,1002.13
2022-08-02T07:48:21.907Z,1002.10
2022-08-02T07:49:21.944Z,1002.15
2022-08-02T07:50:21.880Z,1002.01
2022-08-02T07:51:21.870Z,1002.00
2022-08-02T07:52:21.874Z,1002.07
2022-08-02T07:53:30.588Z,1002.12
2022-08-02T07:54:22.833Z,1002.11
2022-08-02T07:55:21.837Z,1002.11
2022-08-02T07:56:21.833Z,1002.09
2022-08-02T07:57:21.840Z,1001.97
2022-08-02T07:58:21.808Z,1001.95
2022-08-02T07:59:22.801Z,1001.95
2022-08-02T08:00:21.881Z,1001.86
2022-08-02T08:01:21.906Z,1001.86
2022-08-02T08:02:21.795Z,1001.94
2022-08-02T08:03:21.781Z,1001.93
2022-08-02T08:04:21.805Z,1001.91
2022-08-02T08:05:21.759Z,1001.94
2022-08-02T08:06:28.686Z,1001.85
2022-08-02T08:07:22.855Z,1001.86
2022-08-02T08:08:21.759Z,1001.88
2022-08-02T08:09:21.811Z,1001.86
2022-08-02T08:10:21.872Z,1001.77
2022-08-02T08:11:21.738Z,1001.81
2022-08-02T08:12:21.735Z,1001.81
2022-08-02T08:13:21.717Z,1001.79
2022-08-02T08:14:21.724Z,1001.78
2022-08-02T08:15:21.703Z,1001.82
2022-08-02T08:16:21.692Z,1001.81
2022-08-02T08:17:21.740Z,1001.86
2022-08-02T08:18:21.680Z,1001.92
2022-08-02T08:19:21.679Z,1001.84
2022-08-02T08:20:22.712Z,1001.95
2022-08-02T08:21:21.711Z,1001.95
2022-08-02T08:22:21.662Z,1001.94
2022-08-02T08:23:21.685Z,1001.96
2022-08-02T08:24:21.646Z,1001.90
2022-08-02T08:25:21.630Z,1001.98
2022-08-02T08:26:22.424Z,1001.98
2022-08-02T08:27:21.618Z,1001.97
2022-08-02T08:28:21.650Z,1001.96
2022-08-02T08:29:21.614Z,1002.02
2022-08-02T08:30:21.694Z,1001.96
2022-08-02T08:31:21.611Z,1002.03
2022-08-02T08:32:21.877Z,1001.92
2022-08-02T08:33:22.429Z,1001.93
2022-08-02T08:34:21.621Z,1001.94
2022-08-02T08:35:21.603Z,1001.98
2022-08-02T08:36:21.596Z,1001.93
2022-08-02T08:37:21.570Z,1001.97
2022-08-02T08:38:21.567Z,1001.85
2022-08-02T08:39:21.578Z,1001.90
2022-08-02T08:40:21.549Z,1001.88
2022-08-02T08:41:21.538Z,1001.81
2022-08-02T08:42:21.554Z,1001.94
2022-08-02T08:43:21.538Z,1001.92
2022-08-02T08:44:21.521Z,1001.85
2022-08-02T08:45:21.531Z,1001.91
2022-08-02T08:46:21.508Z,1001.88
2022-08-02T08:47:21.508Z,1001.89
2022-08-02T08:48:30.586Z,1001.89
2022-08-02T08:49:22.526Z,1001.86
2022-08-02T08:50:24.754Z,1001.77
2022-08-02T08:51:22.505Z,1001.76
2022-08-02T08:52:21.467Z,1001.87
2022-08-02T08:53:21.467Z,1001.80
2022-08-02T08:54:22.528Z,1001.81
2022-08-02T08:55:21.460Z,1001.81
2022-08-02T08:56:21.447Z,1001.79
2022-08-02T08:57:21.483Z,1001.83
2022-08-02T08:58:21.431Z,1001.81
2022-08-02T08:59:21.489Z,1001.76
2022-08-02T09:00:21.446Z,1001.80
2022-08-02T09:01:21.585Z,1001.81
2022-08-02T09:02:23.675Z,1001.82
2022-08-02T09:03:23.499Z,1001.78
2022-08-02T09:04:21.439Z,1001.77
2022-08-02T09:05:21.430Z,1001.76
2022-08-02T09:06:21.384Z,1001.78
2022-08-02T09:07:21.388Z,1001.82
2022-08-02T09:08:21.480Z,1001.81
2022-08-02T09:09:21.372Z,1001.83
2022-08-02T09:10:21.381Z,1001.84
2022-08-02T09:11:21.400Z,1001.83
2022-08-02T09:12:21.404Z,1001.77
2022-08-02T09:13:37.503Z,1001.72
2022-08-02T09:14:23.880Z,1001.74
2022-08-02T09:15:21.791Z,1001.68
2022-08-02T09:16:23.031Z,1001.66
2022-08-02T09:17:22.027Z,1001.66
2022-08-02T09:18:22.247Z,1001.70
2022-08-02T09:19:23.758Z,1001.67
2022-08-02T09:20:25.232Z,1001.72
2022-08-02T09:21:22.811Z,1001.71
2022-08-02T09:22:21.952Z,1001.70
2022-08-02T09:23:21.439Z,1001.69
2022-08-02T09:24:21.547Z,1001.55
2022-08-02T09:25:21.504Z,1001.49
2022-08-02T09:26:21.423Z,1001.48
2022-08-02T09:27:21.524Z,1001.63
2022-08-02T09:28:21.442Z,1001.56
2022-08-02T09:29:21.640Z,1001.44
2022-08-02T09:30:21.808Z,1001.67
2022-08-02T09:31:21.474Z,1001.57
2022-08-02T09:32:22.040Z,1001.53
2022-08-02T09:33:22.140Z,1001.57
2022-08-02T09:34:21.307Z,1001.56
2022-08-02T09:35:21.604Z,1001.50
2022-08-02T09:36:22.348Z,1001.53
2022-08-02T09:37:21.555Z,1001.47
2022-08-02T09:38:21.476Z,1001.52
2022-08-02T09:39:21.345Z,1001.54
2022-08-02T09:40:21.316Z,1001.49
2022-08-02T09:41:21.327Z,1001.48
2022-08-02T09:42:21.296Z,1001.53
2022-08-02T09:43:21.460Z,1001.51
2022-08-02T09:44:21.307Z,1001.49
2022-08-02T09:45:21.631Z,1001.43
2022-08-02T09:46:24.015Z,1001.50
2022-08-02T09:47:21.287Z,1001.54
2022-08-02T09:48:21.387Z,1001.55
2022-08-02T09:49:21.277Z,1001.45
2022-08-02T09:50:21.206Z,1001.54
2022-08-02T09:51:21.475Z,1001.53
2022-08-02T09:52:21.216Z,1001.51
2022-08-02T09:53:22.183Z,1001.59
2022-08-02T09:54:21.241Z,1001.49
2022-08-02T09:55:21.209Z,1001.54
2022-08-02T09:56:29.523Z,1001.54
2022-08-02T09:57:22.209Z,1001.46
2022-08-02T09:58:21.166Z,1001.49
2022-08-02T09:59:21.261Z,1001.47
2022-08-02T10:00:37.104Z,1001.45
2022-08-02T10:01:36.886Z,1001.44
2022-08-02T10:02:23.265Z,1001.39
2022-08-02T10:03:21.924Z,1001.42
2022-08-02T10:04:21.657Z,1001.40
2022-08-02T10:05:21.163Z,1001.42
2022-08-02T10:06:21.114Z,1001.38
2022-08-02T10:07:21.629Z,1001.45
2022-08-02T10:08:21.155Z,1001.43
2022-08-02T10:09:21.107Z,1001.39
2022-08-02T10:10:21.062Z,1001.51
2022-08-02T10:11:21.117Z,1001.43
2022-08-02T10:12:21.113Z,1001.42
2022-08-02T10:13:21.853Z,1001.42
2022-08-02T10:14:21.119Z,1001.40
2022-08-02T10:15:24.590Z,1001.47
2022-08-02T10:16:23.064Z,1001.41
2022-08-02T10:17:21.017Z,1001.38
2022-08-02T10:18:37.765Z,1001.37
2022-08-02T10:20:00.869Z,1001.33
2022-08-02T10:20:22.015Z,1001.34
2022-08-02T10:21:21.023Z,1001.37
